Time;durP1;ratioP1;P1;durP2;ratioP2;P2;SDS_P1;SDS_P2;PMS_P1;PMS_P2;Temp;Humidity;BMP_temperature;BMP_pressure;BME280_temperature;BME280_humidity;BME280_pressure;Samples;Min_cycle;Max_cycle;Signal;HPM_P1;HPM_P2
2023/10/02 00:01:19;;;;;;;;;;;;;;;19.82;53.53;100076.03;3152297;28;20436;-71
2023/10/02 00:02:52;;;;;;;;;;;;;;;19.80;53.58;100075.34;3153745;28;19928;-71
2023/10/02 00:04:24;;;;;;;;;;;;;;;19.79;53.20;100066.59;3153236;28;19938;-71
2023/10/02 00:05:55;;;;;;;;;;;;;;;19.80;53.30;100067.41;3144734;28;19981;-71
2023/10/02 00:07:29;;;;;;;;;;;;;;;19.77;53.39;100069.34;3153374;28;20381;-71
2023/10/02 00:09:04;;;;;;;;;;;;;;;19.75;53.54;100073.06;3153617;28;19928;-72
2023/10/02 00:10:34;;;;;;;;;;;;;;;19.73;53.55;100067.91;3153619;28;20437;-71
2023/10/02 00:12:11;;;;;;;;;;;;;;;19.71;53.52;100075.09;3152834;28;19932;-72
2023/10/02 00:13:42;;;;;;;;;;;;;;;19.69;53.77;100069.09;3153435;28;20506;-72
2023/10/02 00:15:12;;;;;;;;;;;;;;;19.71;53.44;100083.03;3153368;28;19932;-72
2023/10/02 00:16:58;;;;;;;;;;;;;;;19.70;53.61;100065.50;3153263;28;20426;-72
2023/10/02 00:18:34;;;;;;;;;;;;;;;19.69;53.48;100082.31;3153265;28;19971;-73
2023/10/02 00:20:19;;;;;;;;;;;;;;;19.66;53.79;100069.34;3162555;28;19927;-74
2023/10/02 00:21:50;;;;;;;;;;;;;;;19.65;53.66;100088.81;3154932;28;20457;-75
2023/10/02 00:23:21;;;;;;;;;;;;;;;19.64;53.67;100078.31;3153503;28;19928;-76
2023/10/02 00:24:53;;;;;;;;;;;;;;;19.66;53.55;100077.25;3153439;28;20389;-75
2023/10/02 00:26:23;;;;;;;;;;;;;;;19.67;53.60;100081.59;3153448;28;20057;-76
2023/10/02 00:27:55;;;;;;;;;;;;;;;19.63;53.84;100074.00;3153214;28;20033;-76
2023/10/02 00:29:26;;;;;;;;;;;;;;;19.62;53.68;100078.44;3153390;28;19928;-75
2023/10/02 00:30:58;;;;;;;;;;;;;;;19.61;53.81;100076.78;3152788;28;20297;-75
2023/10/02 00:32:29;;;;;;;;;;;;;;;19.59;53.95;100083.97;3147776;28;20316;-68
2023/10/02 00:34:02;;;;;;;;;;;;;;;19.57;53.96;100080.59;3152872;28;19928;-69
2023/10/02 00:35:50;;;;;;;;;;;;;;;19.57;54.04;100091.16;3153123;28;19939;-69
2023/10/02 00:37:24;;;;;;;;;;;;;;;19.58;53.94;100082.28;3153083;28;20381;-70
2023/10/02 00:38:58;;;;;;;;;;;;;;;19.56;53.81;100084.22;3153128;28;20455;-69
2023/10/02 00:40:30;;;;;;;;;;;;;;;19.55;53.99;100083.38;3153071;28;19928;-69
2023/10/02 00:42:15;;;;;;;;;;;;;;;19.55;53.86;100077.22;3152996;28;19935;-70
2023/10/02 00:43:46;;;;;;;;;;;;;;;19.54;53.95;100086.13;3151465;28;20405;-69
2023/10/02 00:45:18;;;;;;;;;;;;;;;19.51;54.16;100084.56;3152440;28;19936;-69
2023/10/02 00:46:48;;;;;;;;;;;;;;;19.52;54.01;100082.75;3153296;28;19932;-70
2023/10/02 00:48:26;;;;;;;;;;;;;;;19.50;53.92;100074.97;3152980;28;20356;-69
2023/10/02 00:50:06;;;;;;;;;;;;;;;19.50;53.91;100085.53;3143308;28;19930;-69
2023/10/02 00:51:37;;;;;;;;;;;;;;;19.49;53.99;100077.69;3152015;28;19928;-70
2023/10/02 00:53:10;;;;;;;;;;;;;;;19.49;54.04;100083.84;3152717;28;19935;-69
2023/10/02 00:54:42;;;;;;;;;;;;;;;19.50;53.79;100080.25;3152952;28;20000;-68
2023/10/02 00:56:20;;;;;;;;;;;;;;;19.50;53.82;100079.41;3140594;28;20456;-68
2023/10/02 00:57:52;;;;;;;;;;;;;;;19.50;53.89;100084.69;3140665;28;19936;-68
2023/10/02 00:59:24;;;;;;;;;;;;;;;19.51;53.79;100081.06;3152673;28;19939;-68
2023/10/02 01:00:56;;;;;;;;;;;;;;;19.48;54.05;100078.69;3151896;28;19928;-68
2023/10/02 01:02:26;;;;;;;;;;;;;;;19.48;53.87;100079.50;3152966;28;20001;-69
2023/10/02 01:04:10;;;;;;;;;;;;;;;19.43;53.89;100070.25;3152709;28;19984;-69
2023/10/02 01:05:47;;;;;;;;;;;;;;;19.48;53.81;100076.03;3148397;28;20506;-68
2023/10/02 01:07:22;;;;;;;;;;;;;;;19.49;53.75;100072.41;3152737;28;20454;-68
2023/10/02 01:08:53;;;;;;;;;;;;;;;19.48;53.70;100074.22;3152663;28;20452;-70
2023/10/02 01:10:29;;;;;;;;;;;;;;;19.48;53.79;100076.03;3152588;28;19979;-70
2023/10/02 01:12:00;;;;;;;;;;;;;;;19.47;53.82;100072.56;3152744;28;20011;-70
2023/10/02 01:13:32;;;;;;;;;;;;;;;19.45;53.86;100071.00;3152384;28;20103;-69
2023/10/02 01:15:09;;;;;;;;;;;;;;;19.44;53.75;100074.59;3152751;28;19963;-70
2023/10/02 01:16:50;;;;;;;;;;;;;;;19.42;53.83;100079.16;3147157;28;19935;-70
2023/10/02 01:18:27;;;;;;;;;;;;;;;19.41;53.84;100078.31;3152535;28;19928;-70
2023/10/02 01:20:08;;;;;;;;;;;;;;;19.40;54.00;100073.13;3153690;28;19928;-70
2023/10/02 01:21:42;;;;;;;;;;;;;;;19.38;53.85;100083.00;3152506;28;19932;-70
2023/10/02 01:23:15;;;;;;;;;;;;;;;19.39;53.80;100076.75;3152613;28;19932;-70
2023/10/02 01:25:02;;;;;;;;;;;;;;;19.39;53.82;100082.88;3152340;28;20286;-69
2023/10/02 01:26:36;;;;;;;;;;;;;;;19.39;53.81;100076.75;3152569;28;20483;-71
2023/10/02 01:28:09;;;;;;;;;;;;;;;19.36;53.93;100083.09;3152329;28;19927;-71
2023/10/02 01:29:42;;;;;;;;;;;;;;;19.35;53.89;100088.53;3152505;28;19934;-71
2023/10/02 01:31:31;;;;;;;;;;;;;;;19.34;53.91;100082.38;3152116;28;19932;-71
2023/10/02 01:33:16;;;;;;;;;;;;;;;19.33;53.92;100084.19;3149175;28;20467;-71
2023/10/02 01:34:48;;;;;;;;;;;;;;;19.34;53.79;100082.38;3152557;28;19928;-71
2023/10/02 01:36:19;;;;;;;;;;;;;;;19.32;53.96;100087.78;3152397;28;19932;-72
2023/10/02 01:37:52;;;;;;;;;;;;;;;19.31;53.79;100079.97;3152611;28;19928;-72
2023/10/02 01:39:23;;;;;;;;;;;;;;;19.30;53.93;100084.41;3152462;28;19938;-72
2023/10/02 01:41:03;;;;;;;;;;;;;;;19.29;53.88;100080.09;3152341;28;20031;-72
2023/10/02 01:42:34;;;;;;;;;;;;;;;19.27;54.05;100079.38;3152227;28;20038;-72
2023/10/02 01:44:07;;;;;;;;;;;;;;;19.27;53.90;100079.38;3152380;28;19928;-72
2023/10/02 01:45:42;;;;;;;;;;;;;;;19.28;54.13;100078.41;3152157;28;19928;-72
2023/10/02 01:47:15;;;;;;;;;;;;;;;19.28;54.01;100074.94;3152592;28;19932;-72
2023/10/02 01:48:48;;;;;;;;;;;;;;;19.28;54.07;100080.22;3151541;28;19928;-72
2023/10/02 01:50:24;;;;;;;;;;;;;;;19.27;53.89;100073.25;3144857;28;20450;-71
2023/10/02 01:51:57;;;;;;;;;;;;;;;19.27;54.11;100070.63;3152351;28;20393;-71
2023/10/02 01:53:29;;;;;;;;;;;;;;;19.26;53.93;100069.78;3152822;28;20005;-72
2023/10/02 01:55:00;;;;;;;;;;;;;;;19.27;54.13;100067.97;3153446;28;19928;-72
2023/10/02 01:56:34;;;;;;;;;;;;;;;19.25;53.91;100070.72;3156651;28;19932;-72
2023/10/02 01:59:59;;;;;;;;;;;;;;;19.25;54.02;100068.09;3153011;28;19927;-71
2023/10/02 02:01:46;;;;;;;;;;;;;;;19.25;54.11;100070.72;3155525;28;19928;-71
2023/10/02 02:03:17;;;;;;;;;;;;;;;19.26;53.87;100061.03;3156360;28;20722;-70
2023/10/02 02:04:49;;;;;;;;;;;;;;;19.25;53.98;100068.09;3156466;28;20022;-70
2023/10/02 02:06:21;;;;;;;;;;;;;;;19.26;53.88;100067.16;3146849;28;20328;-70
2023/10/02 02:07:53;;;;;;;;;;;;;;;19.25;53.84;100065.44;3156837;28;20420;-73
2023/10/02 02:09:25;;;;;;;;;;;;;;;19.25;53.81;100059.31;3156175;28;19998;-73
2023/10/02 02:11:14;;;;;;;;;;;;;;;19.24;53.91;100060.28;3156579;28;20033;-73
2023/10/02 02:12:55;;;;;;;;;;;;;;;19.23;54.15;100070.03;3155998;28;20515;-69
2023/10/02 02:14:27;;;;;;;;;;;;;;;19.23;54.18;100071.81;3152852;28;20417;-68
2023/10/02 02:16:06;;;;;;;;;;;;;;;19.21;54.20;100071.94;3150865;28;19963;-69
2023/10/02 02:17:38;;;;;;;;;;;;;;;19.20;54.18;100064.13;3158237;28;19984;-69
2023/10/02 02:19:12;;;;;;;;;;;;;;;19.21;54.13;100068.44;3156793;28;20010;-68
2023/10/02 02:20:57;;;;;;;;;;;;;;;19.20;53.91;100062.34;3156413;28;19934;-68
2023/10/02 02:22:31;;;;;;;;;;;;;;;19.18;54.06;100060.78;3156661;28;19935;-69
2023/10/02 02:24:06;;;;;;;;;;;;;;;19.18;54.26;100066.88;3156122;28;19958;-69
2023/10/02 02:25:38;;;;;;;;;;;;;;;19.20;54.09;100062.34;3156605;28;19928;-68
2023/10/02 02:27:09;;;;;;;;;;;;;;;19.21;54.12;100057.88;3156304;28;20486;-68
2023/10/02 02:28:44;;;;;;;;;;;;;;;19.21;54.03;100065.81;3156366;28;20027;-68
2023/10/02 02:30:19;;;;;;;;;;;;;;;19.21;54.07;100060.53;3144945;28;20019;-68
2023/10/02 02:31:50;;;;;;;;;;;;;;;19.19;54.03;100050.06;3143803;28;20484;-68
2023/10/02 02:33:34;;;;;;;;;;;;;;;19.20;54.23;100053.59;3155497;28;20012;-68
2023/10/02 02:35:09;;;;;;;;;;;;;;;19.21;54.10;100052.59;3156749;28;20578;-68
2023/10/02 02:36:41;;;;;;;;;;;;;;;19.19;54.09;100063.28;3156074;28;19983;-67
2023/10/02 02:38:15;;;;;;;;;;;;;;;19.18;54.11;100058.97;3155942;28;19927;-67
2023/10/02 02:39:49;;;;;;;;;;;;;;;19.20;54.18;100051.78;3156188;28;19940;-67
2023/10/02 02:41:21;;;;;;;;;;;;;;;19.21;53.86;100056.09;3156263;28;20451;-67
2023/10/02 02:42:52;;;;;;;;;;;;;;;19.22;53.93;100059.56;3155716;28;19940;-67
2023/10/02 02:44:36;;;;;;;;;;;;;;;19.21;54.07;100057.88;3156092;28;19989;-67
2023/10/02 02:46:17;;;;;;;;;;;;;;;19.20;53.88;100045.66;3152702;28;20413;-67
2023/10/02 02:47:54;;;;;;;;;;;;;;;19.21;53.78;100057.88;3156473;28;20065;-68
2023/10/02 02:49:25;;;;;;;;;;;;;;;19.19;53.83;100060.63;3149968;28;19939;-68
2023/10/02 02:51:14;;;;;;;;;;;;;;;19.19;53.73;100058.00;3143420;28;20293;-68
2023/10/02 02:53:16;;;;;;;;;;;;;;;19.19;53.80;100052.72;3154636;28;20375;-68
2023/10/02 02:54:44;;;;;;;;;;;;;;;19.15;53.69;100053.91;3156025;28;20334;-67
2023/10/02 02:56:22;;;;;;;;;;;;;;;19.18;53.64;100052.84;3156098;28;19935;-68
2023/10/02 02:57:53;;;;;;;;;;;;;;;19.17;53.88;100051.19;3143982;28;19928;-67
2023/10/02 02:59:29;;;;;;;;;;;;;;;19.15;53.71;100051.28;3143803;28;19928;-67
2023/10/02 03:01:00;;;;;;;;;;;;;;;19.18;53.77;100058.97;3150257;28;19936;-68
2023/10/02 03:02:33;;;;;;;;;;;;;;;19.19;53.47;100057.16;3156135;28;19970;-67
2023/10/02 03:04:11;;;;;;;;;;;;;;;19.18;53.75;100055.50;3156264;28;20478;-69
2023/10/02 03:05:42;;;;;;;;;;;;;;;19.18;53.55;100056.31;3149165;28;19929;-68
2023/10/02 03:07:29;;;;;;;;;;;;;;;19.19;53.61;100054.53;3151638;28;19958;-68
2023/10/02 03:09:01;;;;;;;;;;;;;;;19.19;53.70;100058.00;3154235;28;20706;-70
2023/10/02 03:10:36;;;;;;;;;;;;;;;19.16;53.66;100046.84;3154071;28;19928;-69
2023/10/02 03:12:09;;;;;;;;;;;;;;;19.19;53.73;100052.72;3154098;28;19935;-68
2023/10/02 03:13:40;;;;;;;;;;;;;;;19.20;53.76;100066.78;3153747;28;19967;-69
2023/10/02 03:15:18;;;;;;;;;;;;;;;19.19;53.70;100071.19;3153935;28;20393;-68
2023/10/02 03:16:51;;;;;;;;;;;;;;;19.19;53.54;100063.28;3154172;28;19993;-68
2023/10/02 03:18:30;;;;;;;;;;;;;;;19.19;53.49;100063.28;3154158;28;20081;-70
2023/10/02 03:20:00;;;;;;;;;;;;;;;19.19;53.73;100070.34;3163019;28;19932;-70
2023/10/02 03:21:33;;;;;;;;;;;;;;;19.20;53.39;100078.19;3149974;28;20357;-70
2023/10/02 03:23:11;;;;;;;;;;;;;;;19.18;53.70;100073.97;3154321;28;19940;-70
2023/10/02 03:24:45;;;;;;;;;;;;;;;19.16;53.60;100075.88;3154039;28;20418;-71
2023/10/02 03:26:37;;;;;;;;;;;;;;;19.16;53.46;100076.72;3154036;28;19970;-70
2023/10/02 03:28:16;;;;;;;;;;;;;;;19.15;53.57;100080.31;3153915;28;19958;-70
2023/10/02 03:29:49;;;;;;;;;;;;;;;19.16;53.49;100082.00;3153877;28;20001;-70
2023/10/02 03:31:34;;;;;;;;;;;;;;;19.16;53.59;100086.44;3153667;28;19934;-70
2023/10/02 03:33:17;;;;;;;;;;;;;;;19.15;53.41;100088.25;3153997;28;19928;-68
2023/10/02 03:35:02;;;;;;;;;;;;;;;19.14;53.60;100089.22;3154001;28;19928;-69
2023/10/02 03:36:33;;;;;;;;;;;;;;;19.13;53.37;100082.22;3153855;28;20373;-69
2023/10/02 03:38:05;;;;;;;;;;;;;;;19.14;53.40;100089.22;3153876;28;20035;-69
2023/10/02 03:39:59;;;;;;;;;;;;;;;19.16;53.38;100089.06;3154020;28;19932;-69
2023/10/02 03:41:44;;;;;;;;;;;;;;;19.16;53.35;100091.72;3154139;28;19935;-69
2023/10/02 03:43:34;;;;;;;;;;;;;;;19.15;53.26;100082.13;3153486;28;19928;-70
2023/10/02 03:45:06;;;;;;;;;;;;;;;19.14;53.24;100089.22;3151444;28;19939;-71
2023/10/02 03:46:40;;;;;;;;;;;;;;;19.14;53.31;100097.13;3153690;28;19928;-71
2023/10/02 03:48:15;;;;;;;;;;;;;;;19.14;53.00;100098.91;3153757;28;20034;-72
2023/10/02 03:49:45;;;;;;;;;;;;;;;19.10;53.37;100095.66;3144709;28;20417;-72
2023/10/02 03:51:35;;;;;;;;;;;;;;;19.06;53.49;100095.06;3153713;28;19928;-71
2023/10/02 03:53:12;;;;;;;;;;;;;;;19.05;53.34;100096.03;3153939;28;19928;-70
2023/10/02 03:54:43;;;;;;;;;;;;;;;19.04;53.47;100099.59;3153455;28;20028;-70
2023/10/02 03:56:36;;;;;;;;;;;;;;;18.99;53.44;100093.00;3153640;28;19928;-70
2023/10/02 03:58:09;;;;;;;;;;;;;;;18.97;53.38;100098.41;3153522;28;19928;-70
2023/10/02 03:59:52;;;;;;;;;;;;;;;18.99;53.38;100100.91;3153833;28;19928;-69
2023/10/02 04:01:26;;;;;;;;;;;;;;;18.98;53.33;100104.50;3152113;28;19928;-69
2023/10/02 04:02:59;;;;;;;;;;;;;;;18.94;53.31;100109.19;3153625;28;19935;-69
2023/10/02 04:04:32;;;;;;;;;;;;;;;18.92;53.35;100107.63;3153453;28;20001;-70
2023/10/02 04:06:06;;;;;;;;;;;;;;;18.91;53.49;100112.06;3144011;28;19929;-70
2023/10/02 04:07:37;;;;;;;;;;;;;;;18.90;53.47;100113.03;3153718;28;19927;-70
2023/10/02 04:09:17;;;;;;;;;;;;;;;18.91;53.36;100119.13;3153266;28;19992;-70
2023/10/02 04:10:51;;;;;;;;;;;;;;;18.92;53.22;100100.53;3141317;28;19998;-70
2023/10/02 04:12:23;;;;;;;;;;;;;;;18.91;53.30;100114.69;3153634;28;20480;-70
2023/10/02 04:13:56;;;;;;;;;;;;;;;18.87;53.27;100107.94;3153142;28;20407;-70
2023/10/02 04:15:27;;;;;;;;;;;;;;;18.84;53.28;100105.53;3152801;28;19928;-70
2023/10/02 04:17:09;;;;;;;;;;;;;;;18.83;53.30;100109.13;3147673;28;19954;-70
2023/10/02 04:18:49;;;;;;;;;;;;;;;18.83;53.37;100109.97;3152453;28;19928;-70
2023/10/02 04:20:27;;;;;;;;;;;;;;;18.82;53.12;100110.09;3153108;28;19974;-71
2023/10/02 04:21:57;;;;;;;;;;;;;;;18.82;53.15;100104.84;3145654;28;19935;-71
2023/10/02 04:23:28;;;;;;;;;;;;;;;18.78;53.25;100106.88;3151712;28;19928;-70
2023/10/02 04:25:03;;;;;;;;;;;;;;;18.79;53.13;100111.16;3152934;28;19982;-73
2023/10/02 04:26:34;;;;;;;;;;;;;;;18.76;53.19;100114.03;3153145;28;20404;-74
2023/10/02 04:28:08;;;;;;;;;;;;;;;18.77;53.21;100113.06;3152868;28;19943;-72
2023/10/02 04:29:39;;;;;;;;;;;;;;;18.77;53.08;100118.34;3153066;28;19935;-70
2023/10/02 04:31:20;;;;;;;;;;;;;;;18.77;53.07;100117.50;3153077;28;19928;-70
2023/10/02 04:32:51;;;;;;;;;;;;;;;18.75;52.98;100127.34;3152943;28;20152;-70
2023/10/02 04:34:29;;;;;;;;;;;;;;;18.73;53.14;100116.91;3152873;28;20447;-71
2023/10/02 04:36:05;;;;;;;;;;;;;;;18.76;53.09;100116.69;3148694;28;20411;-71
2023/10/02 04:37:36;;;;;;;;;;;;;;;18.79;52.92;100120.88;3152680;28;20612;-71
2023/10/02 04:39:47;;;;;;;;;;;;;;;18.80;52.75;100120.75;3149234;28;19967;-73
2023/10/02 04:41:03;;;;;;;;;;;;;;;18.84;52.78;100124.00;3152313;28;19928;-74
2023/10/02 04:44:44;;;;;;;;;;;;;;;18.81;52.74;100126.88;3176658;27;19925;-70
2023/10/02 04:46:14;;;;;;;;;;;;;;;18.82;52.73;100131.22;3168193;28;20489;-69
2023/10/02 04:47:48;;;;;;;;;;;;;;;18.85;52.80;100128.34;3169112;28;20072;-68
2023/10/02 04:49:18;;;;;;;;;;;;;;;18.88;52.46;100125.47;3166095;28;20126;-69
2023/10/02 04:50:53;;;;;;;;;;;;;;;18.90;52.48;100123.56;3176047;27;20412;-72
2023/10/02 04:52:53;;;;;;;;;;;;;;;18.89;52.49;100124.50;3172526;27;20432;-69
2023/10/02 04:54:16;;;;;;;;;;;;;;;18.90;52.28;100135.91;3152338;28;19936;-70
2023/10/02 04:55:48;;;;;;;;;;;;;;;18.91;52.35;100135.81;3175781;28;20177;-72
2023/10/02 04:57:20;;;;;;;;;;;;;;;18.93;52.27;100140.94;3175714;28;20021;-70
2023/10/02 04:58:57;;;;;;;;;;;;;;;18.93;52.13;100135.66;3163367;28;19928;-68
2023/10/02 05:00:32;;;;;;;;;;;;;;;18.95;51.99;100145.16;3169320;28;19939;-67
2023/10/02 05:02:20;;;;;;;;;;;;;;;18.93;51.99;100133.91;3162081;28;20365;-68
2023/10/02 05:03:53;;;;;;;;;;;;;;;19.03;52.10;100139.31;3173932;28;20079;-70
2023/10/02 05:05:23;;;;;;;;;;;;;;;19.05;51.84;100140.06;3167610;28;19928;-71
2023/10/02 05:06:55;;;;;;;;;;;;;;;19.04;51.76;100151.56;3168882;28;19961;-69
2023/10/02 05:08:33;;;;;;;;;;;;;;;19.05;51.77;100147.97;3172479;28;20018;-68
2023/10/02 05:10:06;;;;;;;;;;;;;;;19.05;51.81;100151.47;3175049;28;19927;-68
2023/10/02 05:11:50;;;;;;;;;;;;;;;19.07;51.61;100161.88;3175171;28;20010;-70
2023/10/02 05:15:20;;;;;;;;;;;;;;;19.09;51.63;100154.69;3173837;28;20022;-71
2023/10/02 05:16:52;;;;;;;;;;;;;;;19.10;51.48;100164.28;3170874;28;20270;-73
2023/10/02 05:18:24;;;;;;;;;;;;;;;19.10;51.57;100166.94;3173652;28;19927;-70
2023/10/02 05:20:03;;;;;;;;;;;;;;;19.09;51.46;100171.38;3172468;28;20409;-66
2023/10/02 05:21:39;;;;;;;;;;;;;;;19.12;51.33;100172.94;3165162;28;20427;-68
2023/10/02 05:23:10;;;;;;;;;;;;;;;19.13;51.34;100174.63;3172897;28;19932;-64
2023/10/02 05:24:46;;;;;;;;;;;;;;;19.13;51.45;100177.25;3165195;28;19928;-67
2023/10/02 05:26:32;;;;;;;;;;;;;;;19.16;51.23;100184.94;3174774;28;19971;-63
2023/10/02 05:28:05;;;;;;;;;;;;;;;19.20;51.11;100185.59;3171353;28;19978;-63
2023/10/02 05:29:36;;;;;;;;;;;;;;;19.20;50.96;100189.06;3165465;28;19932;-64
2023/10/02 05:31:08;;;;;;;;;;;;;;;19.23;50.96;100188.00;3170131;28;19935;-63
2023/10/02 05:32:41;;;;;;;;;;;;;;;19.20;50.85;100193.50;3168784;28;20601;-63
2023/10/02 05:34:16;;;;;;;;;;;;;;;19.16;50.91;100195.50;3175601;27;19934;-64
2023/10/02 05:35:49;;;;;;;;;;;;;;;19.14;50.92;100194.81;3175201;28;19928;-64
2023/10/02 05:37:23;;;;;;;;;;;;;;;19.16;50.94;100213.16;3163531;28;19928;-64
2023/10/02 05:39:28;;;;;;;;;;;;;;;19.19;50.92;100202.38;3166614;28;19975;-64
2023/10/02 05:40:58;;;;;;;;;;;;;;;19.20;50.83;100204.91;3175229;28;19928;-65
2023/10/02 05:42:29;;;;;;;;;;;;;;;19.23;50.92;100211.75;3175518;27;19942;-62
2023/10/02 05:44:01;;;;;;;;;;;;;;;19.24;50.87;100200.22;3174954;28;20373;-63
2023/10/02 05:45:38;;;;;;;;;;;;;;;19.25;50.64;100200.09;3171229;28;19928;-62
2023/10/02 05:47:11;;;;;;;;;;;;;;;19.27;50.61;100205.28;3162279;28;19943;-63
2023/10/02 05:48:44;;;;;;;;;;;;;;;19.26;50.59;100206.25;3167481;28;19927;-63
2023/10/02 05:50:16;;;;;;;;;;;;;;;19.27;50.62;100208.75;3169200;28;19935;-64
2023/10/02 05:51:47;;;;;;;;;;;;;;;19.26;50.46;100209.72;3170627;28;19928;-65
2023/10/02 05:53:20;;;;;;;;;;;;;;;19.28;50.52;100205.16;3166882;28;19927;-63
2023/10/02 05:54:54;;;;;;;;;;;;;;;19.27;50.35;100213.19;3172309;28;19989;-64
2023/10/02 05:56:26;;;;;;;;;;;;;;;19.31;50.34;100218.16;3163631;28;19993;-63
2023/10/02 05:57:59;;;;;;;;;;;;;;;19.38;50.13;100215.06;3166819;28;20065;-63
2023/10/02 05:59:43;;;;;;;;;;;;;;;19.44;49.63;100220.69;3166586;28;20472;-63
2023/10/02 06:01:23;;;;;;;;;;;;;;;19.52;49.57;100215.69;3155264;28;20370;-63
2023/10/02 06:02:58;;;;;;;;;;;;;;;19.54;49.12;100229.59;3166218;28;20385;-63
2023/10/02 06:04:33;;;;;;;;;;;;;;;19.55;49.20;100225.16;3154121;28;19928;-62
2023/10/02 06:06:15;;;;;;;;;;;;;;;19.65;48.88;100225.34;3148301;28;19928;-62
2023/10/02 06:07:51;;;;;;;;;;;;;;;19.70;48.70;100231.09;3141999;28;19951;-63
2023/10/02 06:09:21;;;;;;;;;;;;;;;19.73;48.80;100231.75;3161790;28;20090;-62
2023/10/02 06:11:08;;;;;;;;;;;;;;;19.78;48.57;100232.19;3141557;28;20808;-62
2023/10/02 06:12:42;;;;;;;;;;;;;;;19.83;48.43;100228.38;3153985;28;19993;-62
2023/10/02 06:14:14;;;;;;;;;;;;;;;19.89;48.25;100227.91;3154860;28;19947;-63
2023/10/02 06:15:47;;;;;;;;;;;;;;;20.00;48.27;100231.41;3161004;28;19928;-63
2023/10/02 06:17:19;;;;;;;;;;;;;;;20.15;48.08;100237.31;3158748;28;20058;-62
2023/10/02 06:19:00;;;;;;;;;;;;;;;20.27;47.91;100232.00;3165901;28;20400;-62
2023/10/02 06:20:34;;;;;;;;;;;;;;;20.37;47.84;100235.59;3157778;28;19943;-61
2023/10/02 06:22:05;;;;;;;;;;;;;;;20.44;47.66;100234.16;3155230;28;20320;-61
2023/10/02 06:23:38;;;;;;;;;;;;;;;20.47;47.50;100236.56;3154599;28;19928;-62
2023/10/02 06:25:17;;;;;;;;;;;;;;;20.51;47.35;100237.16;3158237;28;19928;-62
2023/10/02 06:26:57;;;;;;;;;;;;;;;20.54;47.13;100239.59;3166048;28;20530;-62
2023/10/02 06:28:30;;;;;;;;;;;;;;;20.57;46.86;100240.19;3160204;28;19996;-63
2023/10/02 06:30:00;;;;;;;;;;;;;;;20.60;46.82;100244.38;3166299;28;19949;-63
2023/10/02 06:31:41;;;;;;;;;;;;;;;20.67;46.61;100246.44;3164135;28;19928;-62
2023/10/02 06:33:13;;;;;;;;;;;;;;;20.82;46.51;100243.50;3166097;28;19985;-62
2023/10/02 06:34:44;;;;;;;;;;;;;;;20.97;46.28;100247.56;3166068;28;19928;-62
2023/10/02 06:36:18;;;;;;;;;;;;;;;21.23;46.32;100244.56;3162291;28;20672;-61
2023/10/02 06:37:48;;;;;;;;;;;;;;;21.43;45.91;100243.78;3165553;28;19934;-62
2023/10/02 06:39:21;;;;;;;;;;;;;;;21.68;45.52;100234.63;3160364;28;19935;-61
2023/10/02 06:40:56;;;;;;;;;;;;;;;21.95;45.10;100244.69;3165796;28;19928;-64
2023/10/02 06:42:28;;;;;;;;;;;;;;;22.11;44.84;100252.16;3166176;28;20388;-61
2023/10/02 06:44:14;;;;;;;;;;;;;;;22.19;43.92;100243.56;3165365;28;20040;-61
2023/10/02 06:45:54;;;;;;;;;;;;;;;22.23;43.22;100251.13;3163516;28;19931;-61
2023/10/02 06:47:28;;;;;;;;;;;;;;;22.36;43.32;100256.22;3168330;28;19928;-61
2023/10/02 06:48:59;;;;;;;;;;;;;;;22.62;43.52;100243.28;3167627;28;20289;-61
2023/10/02 06:50:32;;;;;;;;;;;;;;;22.80;42.66;100246.13;3154580;28;20418;-60
2023/10/02 06:52:13;;;;;;;;;;;;;;;22.90;42.32;100254.13;3155451;28;20475;-60
2023/10/02 06:53:45;;;;;;;;;;;;;;;23.15;42.39;100247.44;3165926;28;20394;-61
2023/10/02 06:55:17;;;;;;;;;;;;;;;23.50;41.70;100246.03;3166111;28;19954;-60
2023/10/02 06:56:49;;;;;;;;;;;;;;;23.73;41.24;100254.59;3157852;28;20757;-61
2023/10/02 06:58:24;;;;;;;;;;;;;;;23.91;40.58;100252.03;3166059;28;19940;-61
2023/10/02 06:59:56;;;;;;;;;;;;;;;23.99;40.15;100258.31;3165550;28;19935;-61
2023/10/02 07:01:27;;;;;;;;;;;;;;;24.26;39.97;100264.66;3154495;28;20643;-62
2023/10/02 07:02:59;;;;;;;;;;;;;;;24.51;39.55;100247.19;3163488;28;19935;-61
2023/10/02 07:04:30;;;;;;;;;;;;;;;24.81;39.25;100258.50;3165360;28;19932;-61
2023/10/02 07:06:08;;;;;;;;;;;;;;;24.85;38.53;100247.41;3153675;28;19935;-62
2023/10/02 07:07:58;;;;;;;;;;;;;;;25.20;38.44;100245.75;3161879;28;20306;-61
2023/10/02 07:09:36;;;;;;;;;;;;;;;25.37;37.67;100252.91;3165784;28;19932;-62
2023/10/02 07:11:11;;;;;;;;;;;;;;;25.46;36.94;100251.16;3154814;28;19974;-60
2023/10/02 07:12:43;;;;;;;;;;;;;;;25.50;37.04;100252.53;3156929;28;20379;-60
2023/10/02 07:14:14;;;;;;;;;;;;;;;25.82;36.70;100254.63;3163488;28;20018;-60
2023/10/02 07:15:45;;;;;;;;;;;;;;;26.17;36.37;100258.16;3160042;28;19967;-60
2023/10/02 07:17:23;;;;;;;;;;;;;;;26.53;35.90;100258.00;3161515;28;20443;-60
2023/10/02 07:18:55;;;;;;;;;;;;;;;26.68;35.04;100260.88;3165777;28;19927;-62
2023/10/02 07:20:42;;;;;;;;;;;;;;;26.86;35.12;100258.94;3153224;28;19928;-62
2023/10/02 07:22:16;;;;;;;;;;;;;;;27.18;34.70;100258.22;3159200;28;19963;-63
2023/10/02 07:23:49;;;;;;;;;;;;;;;27.29;34.03;100258.88;3154848;28;19928;-62
2023/10/02 07:25:20;;;;;;;;;;;;;;;27.37;33.89;100254.34;3163124;28;19958;-62
2023/10/02 07:26:52;;;;;;;;;;;;;;;27.47;33.62;100248.84;3165553;28;19928;-62
2023/10/02 07:28:23;;;;;;;;;;;;;;;27.59;33.28;100254.69;3159051;28;19928;-62
2023/10/02 07:29:56;;;;;;;;;;;;;;;27.60;32.89;100251.03;3163222;28;20161;-62
2023/10/02 07:31:26;;;;;;;;;;;;;;;27.45;32.24;100254.38;3162674;28;20232;-64
2023/10/02 07:33:03;;;;;;;;;;;;;;;27.43;32.05;100264.38;3163731;28;19932;-63
2023/10/02 07:34:33;;;;;;;;;;;;;;;27.31;31.99;100262.22;3159974;28;20171;-65
2023/10/02 07:36:14;;;;;;;;;;;;;;;27.29;31.94;100256.19;3164692;28;20405;-64
2023/10/02 07:37:57;;;;;;;;;;;;;;;27.18;31.37;100260.03;3164826;28;19928;-64
2023/10/02 07:39:35;;;;;;;;;;;;;;;26.96;31.18;100259.63;3164434;28;19965;-64
2023/10/02 07:41:07;;;;;;;;;;;;;;;26.89;31.46;100261.31;3163246;28;19928;-64
2023/10/02 07:42:39;;;;;;;;;;;;;;;26.96;31.19;100259.63;3160122;28;20388;-64
2023/10/02 07:44:12;;;;;;;;;;;;;;;27.09;30.80;100255.63;3164288;28;19939;-64
2023/10/02 07:45:44;;;;;;;;;;;;;;;27.33;30.94;100263.72;3147402;28;19933;-64
2023/10/02 07:47:18;;;;;;;;;;;;;;;27.45;30.71;100254.38;3160640;28;20328;-64
2023/10/02 07:48:57;;;;;;;;;;;;;;;27.63;30.62;100248.00;3144654;28;20462;-63
2023/10/02 07:50:33;;;;;;;;;;;;;;;27.83;30.38;100256.50;3143199;28;19997;-64
2023/10/02 07:52:06;;;;;;;;;;;;;;;28.19;29.97;100248.06;3142588;28;19932;-62
2023/10/02 07:53:43;;;;;;;;;;;;;;;28.22;29.40;100258.41;3165290;28;19928;-63
2023/10/02 07:55:15;;;;;;;;;;;;;;;28.06;29.25;100257.47;3165020;28;19978;-63
2023/10/02 07:56:49;;;;;;;;;;;;;;;28.17;29.58;100261.63;3165217;28;19928;-63
2023/10/02 07:58:21;;;;;;;;;;;;;;;28.27;28.88;100259.56;3156574;28;20465;-63
2023/10/02 07:59:52;;;;;;;;;;;;;;;28.41;28.91;100265.22;3163060;28;20004;-62
2023/10/02 08:01:27;;;;;;;;;;;;;;;28.51;28.95;100265.88;3154165;28;20407;-61
2023/10/02 08:03:02;;;;;;;;;;;;;;;28.67;28.71;100262.31;3161266;28;19931;-63
2023/10/02 08:04:47;;;;;;;;;;;;;;;28.87;28.85;100258.16;3156678;28;19927;-61
2023/10/02 08:06:21;;;;;;;;;;;;;;;29.01;28.49;100261.91;3162459;28;19934;-61
2023/10/02 08:08:08;;;;;;;;;;;;;;;29.25;28.37;100267.16;3163730;28;19928;-61
2023/10/02 08:09:40;;;;;;;;;;;;;;;29.27;27.75;100266.97;3162762;28;20415;-61
2023/10/02 08:11:13;;;;;;;;;;;;;;;29.41;27.94;100254.63;3159206;28;19932;-61
2023/10/02 08:12:54;;;;;;;;;;;;;;;29.34;27.40;100259.84;3160321;28;19928;-61
2023/10/02 08:14:42;;;;;;;;;;;;;;;29.47;27.99;100256.56;3165205;28;19932;-62
2023/10/02 08:16:14;;;;;;;;;;;;;;;29.63;27.69;100258.28;3161413;28;19958;-62